createdAt,value
2023-05-17T00:04:20.594Z,1017.91
2023-05-17T00:09:40.138Z,1017.96
2023-05-17T00:14:55.175Z,1018.00
2023-05-17T00:20:38.413Z,1018.03
2023-05-17T00:25:56.263Z,1018.01
2023-05-17T00:31:13.711Z,1018.12
2023-05-17T00:36:17.102Z,1018.22
2023-05-17T00:41:27.447Z,1018.31
2023-05-17T00:46:34.873Z,1018.23
2023-05-17T00:51:42.455Z,1018.29
2023-05-17T00:56:58.177Z,1018.28
2023-05-17T01:02:04.113Z,1018.30
2023-05-17T01:07:18.367Z,1018.27
2023-05-17T01:12:31.236Z,1018.32
2023-05-17T01:18:30.557Z,1018.31
2023-05-17T01:24:02.566Z,1018.34
2023-05-17T01:29:16.764Z,1018.31
2023-05-17T01:36:40.543Z,1018.34
2023-05-17T01:40:17.720Z,1018.33
2023-05-17T01:45:25.293Z,1018.35
2023-05-17T01:50:32.833Z,1018.39
2023-05-17T01:55:40.324Z,1018.44
2023-05-17T02:00:47.376Z,1018.47
2023-05-17T02:05:54.549Z,1018.51
2023-05-17T02:11:08.056Z,1018.57
2023-05-17T02:16:15.259Z,1018.48
2023-05-17T02:21:22.477Z,1018.49
2023-05-17T02:26:29.791Z,1018.54
2023-05-17T02:31:37.024Z,1018.47
2023-05-17T02:36:44.199Z,1018.49
2023-05-17T02:41:51.791Z,1018.52
2023-05-17T02:47:05.693Z,1018.56
2023-05-17T02:52:14.823Z,1018.54
2023-05-17T02:57:22.748Z,1018.57
2023-05-17T03:03:22.409Z,1018.67
2023-05-17T03:08:51.961Z,1018.61
2023-05-17T03:13:43.868Z,1018.67
2023-05-17T03:19:26.935Z,1018.74
2023-05-17T03:24:34.039Z,1018.74
2023-05-17T03:30:20.996Z,1018.83
2023-05-17T03:35:28.449Z,1018.81
2023-05-17T03:40:35.371Z,1018.87
2023-05-17T03:45:42.655Z,1018.96
2023-05-17T03:50:49.773Z,1018.94
2023-05-17T03:55:56.987Z,1018.98
2023-05-17T04:01:04.371Z,1019.06
2023-05-17T04:06:11.538Z,1019.08
2023-05-17T04:11:18.852Z,1019.22
2023-05-17T04:16:35.567Z,1019.25
2023-05-17T04:21:40.757Z,1019.31
2023-05-17T04:26:48.090Z,1019.33
2023-05-17T04:31:55.527Z,1019.37
2023-05-17T04:37:02.653Z,1019.43
2023-05-17T04:42:09.946Z,1019.48
2023-05-17T04:47:17.532Z,1019.53
2023-05-17T04:52:24.673Z,1019.49
2023-05-17T04:57:31.910Z,1019.57
2023-05-17T05:02:39.411Z,1019.63
2023-05-17T05:07:46.516Z,1019.68
2023-05-17T05:12:53.744Z,1019.71
2023-05-17T05:18:01.161Z,1019.68
2023-05-17T05:23:08.192Z,1019.75
2023-05-17T05:28:15.762Z,1019.72
2023-05-17T05:33:24.076Z,1019.80
2023-05-17T05:38:41.801Z,1019.81
2023-05-17T05:43:49.473Z,1019.83
2023-05-17T05:49:06.720Z,1019.86
2023-05-17T05:54:50.727Z,1019.89
2023-05-17T06:00:48.926Z,1019.88
2023-05-17T06:06:36.243Z,1019.88
2023-05-17T06:11:55.730Z,1019.87
2023-05-17T06:17:01.815Z,1019.89
2023-05-17T06:22:27.031Z,1019.88
2023-05-17T06:27:37.217Z,1019.97
2023-05-17T06:32:41.334Z,1020.04
2023-05-17T06:38:24.544Z,1019.97
2023-05-17T06:43:32.178Z,1020.01
2023-05-17T06:48:58.878Z,1020.02
2023-05-17T06:54:41.518Z,1020.02
2023-05-17T07:00:43.338Z,1020.07
2023-05-17T07:05:11.915Z,1020.09
2023-05-17T07:10:23.812Z,1020.11
2023-05-17T07:15:31.370Z,1020.14
2023-05-17T07:20:50.563Z,1020.20
2023-05-17T07:25:53.486Z,1020.28
2023-05-17T07:31:05.281Z,1020.31
2023-05-17T07:37:18.329Z,1020.37
2023-05-17T07:42:05.619Z,1020.40
2023-05-17T07:47:35.250Z,1020.31
2023-05-17T07:53:16.126Z,1020.48
2023-05-17T07:58:33.314Z,1020.34
2023-05-17T08:04:28.008Z,1020.39
2023-05-17T08:09:41.788Z,1020.33
2023-05-17T08:14:51.421Z,1020.41
2023-05-17T08:19:58.604Z,1020.48
2023-05-17T08:25:05.719Z,1020.56
2023-05-17T08:30:18.113Z,1020.58
2023-05-17T08:35:20.306Z,1020.60
2023-05-17T08:40:33.890Z,1020.62
2023-05-17T08:45:59.079Z,1020.64
2023-05-17T08:51:58.369Z,1020.69
2023-05-17T08:57:09.017Z,1020.64
2023-05-17T09:02:16.784Z,1020.67
2023-05-17T09:07:36.498Z,1020.67
2023-05-17T09:13:28.952Z,1020.72
2023-05-17T09:18:10.583Z,1020.70
2023-05-17T09:23:19.132Z,1020.77
2023-05-17T09:28:54.892Z,1020.76
2023-05-17T09:34:43.343Z,1020.87
2023-05-17T09:39:58.735Z,1020.88
2023-05-17T09:45:15.393Z,1020.91
2023-05-17T09:50:38.901Z,1021.00
2023-05-17T09:55:51.795Z,1020.95
2023-05-17T10:01:04.978Z,1021.11
2023-05-17T10:06:13.421Z,1021.03
2023-05-17T10:11:19.761Z,1021.07
2023-05-17T10:16:34.555Z,1020.96
2023-05-17T10:21:41.313Z,1020.87
2023-05-17T10:26:48.520Z,1020.85
2023-05-17T10:31:55.693Z,1020.93
2023-05-17T10:37:02.925Z,1020.88
2023-05-17T10:42:14.804Z,1020.89
2023-05-17T10:47:17.569Z,1020.87
2023-05-17T10:52:24.839Z,1020.92
2023-05-17T10:57:36.094Z,1020.91
2023-05-17T11:02:39.291Z,1020.88
2023-05-17T11:07:46.484Z,1020.94
2023-05-17T11:12:53.885Z,1020.93
2023-05-17T11:18:01.379Z,1020.94
2023-05-17T11:23:09.084Z,1020.92
2023-05-17T11:28:16.559Z,1020.85
2023-05-17T11:33:33.495Z,1020.77
2023-05-17T11:38:31.184Z,1020.68
2023-05-17T11:43:38.463Z,1020.68
2023-05-17T11:48:45.818Z,1020.66
2023-05-17T11:53:56.418Z,1020.73
2023-05-17T11:59:01.549Z,1020.70
2023-05-17T12:04:09.128Z,1020.62
2023-05-17T12:09:23.844Z,1020.67
2023-05-17T12:14:28.073Z,1020.58
2023-05-17T12:19:36.560Z,1020.61
2023-05-17T12:24:54.131Z,1020.66
2023-05-17T12:29:53.670Z,1020.70
2023-05-17T12:35:11.894Z,1020.61
2023-05-17T12:40:25.584Z,1020.64
2023-05-17T12:45:33.041Z,1020.61
2023-05-17T12:50:40.225Z,1020.63
2023-05-17T12:55:47.453Z,1020.56
2023-05-17T13:00:54.645Z,1020.49
2023-05-17T13:06:01.878Z,1020.55
2023-05-17T13:11:09.076Z,1020.43
2023-05-17T13:16:16.317Z,1020.43
2023-05-17T13:21:23.530Z,1020.52
2023-05-17T13:26:42.620Z,1020.49
2023-05-17T13:31:50.115Z,1020.53
2023-05-17T13:37:00.133Z,1020.53
2023-05-17T13:42:14.918Z,1020.52
2023-05-17T13:47:22.148Z,1020.47
2023-05-17T13:52:29.322Z,1020.56
2023-05-17T13:57:36.635Z,1020.57
2023-05-17T14:02:44.093Z,1020.55
2023-05-17T14:08:06.312Z,1020.52
2023-05-17T14:13:13.594Z,1020.52
2023-05-17T14:18:21.092Z,1020.55
2023-05-17T14:23:31.391Z,1020.46
2023-05-17T14:28:38.634Z,1020.40
2023-05-17T14:33:45.813Z,1020.38
2023-05-17T14:38:53.018Z,1020.45
2023-05-17T14:44:00.298Z,1020.44
2023-05-17T14:49:07.540Z,1020.38
2023-05-17T14:54:14.694Z,1020.39
2023-05-17T14:59:21.930Z,1020.42
2023-05-17T15:04:29.196Z,1020.34
2023-05-17T15:09:36.277Z,1020.35
2023-05-17T15:14:43.454Z,1020.43
2023-05-17T15:19:50.879Z,1020.41
2023-05-17T15:24:58.124Z,1020.41
2023-05-17T15:30:05.334Z,1020.39
2023-05-17T15:35:12.461Z,1020.49
2023-05-17T15:40:19.646Z,1020.51
2023-05-17T15:45:26.942Z,1020.53
2023-05-17T15:50:34.076Z,1020.47
2023-05-17T15:55:41.386Z,1020.50
2023-05-17T16:00:48.697Z,1020.50
2023-05-17T16:05:55.949Z,1020.45
2023-05-17T16:11:03.052Z,1020.43
2023-05-17T16:16:13.419Z,1020.48
2023-05-17T16:21:23.164Z,1020.51
2023-05-17T16:26:30.518Z,1020.53
2023-05-17T16:31:38.071Z,1020.52
2023-05-17T16:36:45.522Z,1020.49
2023-05-17T16:41:53.030Z,1020.54
2023-05-17T16:47:00.679Z,1020.52
2023-05-17T16:52:08.293Z,1020.52
2023-05-17T16:57:16.009Z,1020.56
2023-05-17T17:02:23.697Z,1020.56
2023-05-17T17:07:31.242Z,1020.54
2023-05-17T17:12:38.860Z,1020.62
2023-05-17T17:17:46.738Z,1020.59
2023-05-17T17:22:54.277Z,1020.57
2023-05-17T17:28:02.012Z,1020.54
2023-05-17T17:33:09.856Z,1020.52
2023-05-17T17:38:17.440Z,1020.53
2023-05-17T17:43:25.046Z,1020.55
2023-05-17T17:48:32.793Z,1020.56
2023-05-17T17:53:40.792Z,1020.57
2023-05-17T17:58:48.705Z,1020.62
2023-05-17T18:03:56.352Z,1020.58
2023-05-17T18:09:04.051Z,1020.62
2023-05-17T18:14:11.780Z,1020.57
2023-05-17T18:19:19.732Z,1020.56
2023-05-17T18:24:27.301Z,1020.62
2023-05-17T18:29:35.023Z,1020.58
2023-05-17T18:34:42.698Z,1020.55
2023-05-17T18:39:50.441Z,1020.46
2023-05-17T18:44:58.184Z,1020.47
2023-05-17T18:50:05.903Z,1020.47
2023-05-17T18:55:13.905Z,1020.46
2023-05-17T19:00:21.733Z,1020.46
2023-05-17T19:05:29.557Z,1020.50
2023-05-17T19:10:37.154Z,1020.56
2023-05-17T19:15:44.999Z,1020.61
2023-05-17T19:20:53.132Z,1020.62
2023-05-17T19:26:00.314Z,1020.60
2023-05-17T19:31:08.145Z,1020.61
2023-05-17T19:36:15.655Z,1020.59
2023-05-17T19:41:23.354Z,1020.58
2023-05-17T19:46:31.149Z,1020.57
2023-05-17T19:51:38.919Z,1020.62
2023-05-17T19:56:47.174Z,1020.64
2023-05-17T20:01:54.758Z,1020.67
2023-05-17T20:07:02.582Z,1020.64
2023-05-17T20:12:10.200Z,1020.65
2023-05-17T20:17:17.985Z,1020.67
2023-05-17T20:22:25.831Z,1020.73
2023-05-17T20:27:33.438Z,1020.81
2023-05-17T20:32:41.297Z,1020.81
2023-05-17T20:37:49.085Z,1020.82
2023-05-17T20:42:56.870Z,1020.88
2023-05-17T20:48:04.546Z,1020.89
2023-05-17T20:53:12.233Z,1020.77
2023-05-17T20:58:20.140Z,1020.88
2023-05-17T21:03:28.045Z,1020.88
2023-05-17T21:08:34.752Z,1020.82
2023-05-17T21:13:41.907Z,1020.79
2023-05-17T21:18:49.427Z,1020.75
2023-05-17T21:23:56.630Z,1020.75
2023-05-17T21:29:03.980Z,1020.68
2023-05-17T21:34:11.194Z,1020.63
2023-05-17T21:39:18.501Z,1020.61
2023-05-17T21:44:25.715Z,1020.64
2023-05-17T21:49:32.944Z,1020.62
2023-05-17T21:54:40.260Z,1020.54
2023-05-17T21:59:47.489Z,1020.55
2023-05-17T22:04:54.796Z,1020.53
2023-05-17T22:10:02.352Z,1020.56
2023-05-17T22:15:09.553Z,1020.54
2023-05-17T22:20:16.737Z,1020.51
2023-05-17T22:25:24.124Z,1020.48
2023-05-17T22:30:31.714Z,1020.43
2023-05-17T22:35:38.804Z,1020.45
2023-05-17T22:40:46.066Z,1020.42
2023-05-17T22:45:53.332Z,1020.43
2023-05-17T22:51:00.772Z,1020.32
2023-05-17T22:56:43.693Z,1020.32
2023-05-17T23:02:06.745Z,1020.25
2023-05-17T23:07:24.466Z,1020.30
2023-05-17T23:12:36.769Z,1020.21
2023-05-17T23:17:58.124Z,1020.15
2023-05-17T23:23:01.180Z,1020.13
2023-05-17T23:28:38.728Z,1020.13
2023-05-17T23:33:49.107Z,1020.05
2023-05-17T23:39:04.500Z,1019.98
2023-05-17T23:44:07.015Z,1019.94
2023-05-17T23:49:29.456Z,1019.80
2023-05-17T23:54:38.386Z,1019.82
2023-05-17T23:59:49.171Z,1019.78
